sensor_id;sensor_type;location;lat;lon;timestamp;pressure;altitude;pressure_sealevel;temperature;humidity
55373;BME280;41249;47.838;16.490;2023-02-17T00:01:25;100255.84;;;-5.42;83.04
55373;BME280;41249;47.838;16.490;2023-02-17T00:03:52;100247.72;;;-5.47;83.32
55373;BME280;41249;47.838;16.490;2023-02-17T00:06:21;100245.84;;;-5.41;83.87
55373;BME280;41249;47.838;16.490;2023-02-17T00:08:49;100242.34;;;-5.17;84.44
55373;BME280;41249;47.838;16.490;2023-02-17T00:11:15;100243.97;;;-4.90;84.21
55373;BME280;41249;47.838;16.490;2023-02-17T00:13:42;100239.06;;;-4.73;83.65
55373;BME280;41249;47.838;16.490;2023-02-17T00:16:12;100241.22;;;-4.70;83.54
55373;BME280;41249;47.838;16.490;2023-02-17T00:18:41;100236.06;;;-4.77;83.25
55373;BME280;41249;47.838;16.490;2023-02-17T00:21:16;100237.38;;;-4.54;83.63
55373;BME280;41249;47.838;16.490;2023-02-17T00:23:44;100247.34;;;-3.76;84.20
55373;BME280;41249;47.838;16.490;2023-02-17T00:26:11;100245.19;;;-3.01;82.90
55373;BME280;41249;47.838;16.490;2023-02-17T00:28:39;100252.47;;;-2.68;81.72
55373;BME280;41249;47.838;16.490;2023-02-17T00:31:11;100243.38;;;-3.49;79.65
55373;BME280;41249;47.838;16.490;2023-02-17T00:33:39;100254.09;;;-4.27;78.80
55373;BME280;41249;47.838;16.490;2023-02-17T00:36:10;100236.31;;;-4.58;79.94
55373;BME280;41249;47.838;16.490;2023-02-17T00:38:37;100243.94;;;-4.75;80.61
55373;BME280;41249;47.838;16.490;2023-02-17T00:41:04;100246.66;;;-4.75;81.56
55373;BME280;41249;47.838;16.490;2023-02-17T00:43:31;100243.69;;;-4.89;80.88
55373;BME280;41249;47.838;16.490;2023-02-17T00:45:57;100238.81;;;-5.02;81.05
55373;BME280;41249;47.838;16.490;2023-02-17T00:48:24;100245.28;;;-4.78;82.04
55373;BME280;41249;47.838;16.490;2023-02-17T00:50:50;100252.75;;;-4.29;82.20
55373;BME280;41249;47.838;16.490;2023-02-17T00:53:17;100246.00;;;-4.42;81.72
55373;BME280;41249;47.838;16.490;2023-02-17T00:55:43;100243.91;;;-4.65;80.63
55373;BME280;41249;47.838;16.490;2023-02-17T00:58:10;100241.78;;;-4.88;80.62
55373;BME280;41249;47.838;16.490;2023-02-17T01:00:37;100236.38;;;-5.14;81.24
55373;BME280;41249;47.838;16.490;2023-02-17T01:03:04;100236.38;;;-5.24;81.81
55373;BME280;41249;47.838;16.490;2023-02-17T01:05:31;100234.50;;;-5.28;81.90
55373;BME280;41249;47.838;16.490;2023-02-17T01:07:57;100230.16;;;-5.34;82.04
55373;BME280;41249;47.838;16.490;2023-02-17T01:10:24;100225.84;;;-5.30;81.92
55373;BME280;41249;47.838;16.490;2023-02-17T01:12:51;100221.78;;;-5.23;81.67
55373;BME280;41249;47.838;16.490;2023-02-17T01:15:17;100231.50;;;-5.32;81.36
55373;BME280;41249;47.838;16.490;2023-02-17T01:17:44;100227.44;;;-5.39;81.42
55373;BME280;41249;47.838;16.490;2023-02-17T01:20:11;100232.84;;;-5.49;82.15
55373;BME280;41249;47.838;16.490;2023-02-17T01:22:38;100232.06;;;-5.55;81.79
55373;BME280;41249;47.838;16.490;2023-02-17T01:25:05;100224.97;;;-5.71;81.62
55373;BME280;41249;47.838;16.490;2023-02-17T01:27:33;100225.50;;;-5.74;82.04
55373;BME280;41249;47.838;16.490;2023-02-17T01:30:00;100230.41;;;-5.61;82.89
55373;BME280;41249;47.838;16.490;2023-02-17T01:32:27;100213.91;;;-5.49;82.67
55373;BME280;41249;47.838;16.490;2023-02-17T01:34:53;100218.78;;;-5.46;82.64
55373;BME280;41249;47.838;16.490;2023-02-17T01:37:20;100217.97;;;-5.42;82.32
55373;BME280;41249;47.838;16.490;2023-02-17T01:39:47;100215.28;;;-5.32;81.90
55373;BME280;41249;47.838;16.490;2023-02-17T01:42:18;100212.84;;;-5.28;82.08
55373;BME280;41249;47.838;16.490;2023-02-17T01:47:32;100203.06;;;-5.04;82.14
55373;BME280;41249;47.838;16.490;2023-02-17T01:49:59;100204.94;;;-4.89;81.77
55373;BME280;41249;47.838;16.490;2023-02-17T01:52:25;100202.50;;;-4.81;82.04
55373;BME280;41249;47.838;16.490;2023-02-17T01:54:58;100196.75;;;-4.64;81.51
55373;BME280;41249;47.838;16.490;2023-02-17T01:57:29;100198.59;;;-4.50;81.70
55373;BME280;41249;47.838;16.490;2023-02-17T01:59:58;100200.44;;;-4.35;81.28
55373;BME280;41249;47.838;16.490;2023-02-17T02:02:25;100187.41;;;-4.23;81.62
55373;BME280;41249;47.838;16.490;2023-02-17T02:04:55;100190.28;;;-4.09;80.60
55373;BME280;41249;47.838;16.490;2023-02-17T02:07:26;100186.63;;;-3.85;81.24
55373;BME280;41249;47.838;16.490;2023-02-17T02:09:56;100174.53;;;-3.58;80.99
55373;BME280;41249;47.838;16.490;2023-02-17T02:12:31;100184.25;;;-3.57;77.57
55373;BME280;41249;47.838;16.490;2023-02-17T02:15:07;100172.56;;;-3.19;78.49
55373;BME280;41249;47.838;16.490;2023-02-17T02:18:02;100171.66;;;-3.10;78.28
55373;BME280;41249;47.838;16.490;2023-02-17T02:23:55;100164.06;;;-2.84;78.18
55373;BME280;41249;47.838;16.490;2023-02-17T02:32:36;100166.13;;;-2.52;78.01
55373;BME280;41249;47.838;16.490;2023-02-17T02:34:46;100162.47;;;-2.43;77.49
55373;BME280;41249;47.838;16.490;2023-02-17T02:37:25;100163.72;;;-2.11;77.19
55373;BME280;41249;47.838;16.490;2023-02-17T02:39:56;100161.13;;;-2.03;76.85
55373;BME280;41249;47.838;16.490;2023-02-17T02:42:26;100165.31;;;-2.10;77.32
55373;BME280;41249;47.838;16.490;2023-02-17T02:44:53;100162.75;;;-2.02;77.25
55373;BME280;41249;47.838;16.490;2023-02-17T02:50:13;100143.97;;;-1.66;76.78
55373;BME280;41249;47.838;16.490;2023-02-17T02:55:19;100144.84;;;-1.52;75.70
55373;BME280;41249;47.838;16.490;2023-02-17T02:58:04;100149.06;;;-1.78;75.54
55373;BME280;41249;47.838;16.490;2023-02-17T03:00:57;100142.53;;;-1.96;75.86
55373;BME280;41249;47.838;16.490;2023-02-17T03:06:36;100144.50;;;-2.20;75.79
55373;BME280;41249;47.838;16.490;2023-02-17T03:09:11;100135.81;;;-2.41;75.34
55373;BME280;41249;47.838;16.490;2023-02-17T03:11:39;100144.69;;;-2.54;74.89
55373;BME280;41249;47.838;16.490;2023-02-17T03:14:09;100141.78;;;-2.20;75.65
55373;BME280;41249;47.838;16.490;2023-02-17T03:16:38;100152.16;;;-2.22;76.11
55373;BME280;41249;47.838;16.490;2023-02-17T03:19:05;100146.63;;;-2.35;75.70
55373;BME280;41249;47.838;16.490;2023-02-17T03:21:56;100135.09;;;-2.46;75.17
55373;BME280;41249;47.838;16.490;2023-02-17T03:24:24;100137.69;;;-2.60;75.86
55373;BME280;41249;47.838;16.490;2023-02-17T03:26:51;100147.34;;;-2.49;76.45
55373;BME280;41249;47.838;16.490;2023-02-17T03:29:17;100143.97;;;-2.41;76.74
55373;BME280;41249;47.838;16.490;2023-02-17T03:31:44;100147.91;;;-2.52;76.48
55373;BME280;41249;47.838;16.490;2023-02-17T03:34:11;100156.34;;;-2.53;77.41
55373;BME280;41249;47.838;16.490;2023-02-17T03:36:38;100159.09;;;-2.77;76.59
55373;BME280;41249;47.838;16.490;2023-02-17T03:39:04;100156.72;;;-2.83;77.39
55373;BME280;41249;47.838;16.490;2023-02-17T03:41:31;100154.53;;;-2.81;77.70
55373;BME280;41249;47.838;16.490;2023-02-17T03:43:57;100153.81;;;-2.92;76.65
55373;BME280;41249;47.838;16.490;2023-02-17T03:46:24;100160.25;;;-3.12;77.46
55373;BME280;41249;47.838;16.490;2023-02-17T03:48:50;100150.66;;;-3.33;77.69
55373;BME280;41249;47.838;16.490;2023-02-17T03:51:19;100152.34;;;-3.65;77.72
55373;BME280;41249;47.838;16.490;2023-02-17T03:53:46;100159.25;;;-3.49;78.16
55373;BME280;41249;47.838;16.490;2023-02-17T03:56:14;100178.78;;;-3.52;78.70
55373;BME280;41249;47.838;16.490;2023-02-17T03:58:41;100177.75;;;-3.56;79.01
55373;BME280;41249;47.838;16.490;2023-02-17T04:01:10;100171.31;;;-3.65;78.99
55373;BME280;41249;47.838;16.490;2023-02-17T04:03:37;100166.44;;;-3.68;78.43
55373;BME280;41249;47.838;16.490;2023-02-17T04:06:04;100158.53;;;-4.04;77.89
55373;BME280;41249;47.838;16.490;2023-02-17T04:08:32;100160.78;;;-4.16;79.32
55373;BME280;41249;47.838;16.490;2023-02-17T04:11:00;100166.94;;;-4.05;79.12
55373;BME280;41249;47.838;16.490;2023-02-17T04:13:27;100173.38;;;-3.91;79.55
55373;BME280;41249;47.838;16.490;2023-02-17T04:15:54;100172.06;;;-3.99;79.27
55373;BME280;41249;47.838;16.490;2023-02-17T04:18:21;100175.59;;;-3.98;79.35
55373;BME280;41249;47.838;16.490;2023-02-17T04:20:49;100160.50;;;-4.14;78.31
55373;BME280;41249;47.838;16.490;2023-02-17T04:23:16;100166.44;;;-4.12;79.12
55373;BME280;41249;47.838;16.490;2023-02-17T04:25:44;100171.22;;;-3.94;79.07
55373;BME280;41249;47.838;16.490;2023-02-17T04:28:11;100167.69;;;-3.95;79.19
55373;BME280;41249;47.838;16.490;2023-02-17T04:30:38;100162.63;;;-4.06;78.67
55373;BME280;41249;47.838;16.490;2023-02-17T04:33:05;100169.88;;;-3.97;79.71
55373;BME280;41249;47.838;16.490;2023-02-17T04:35:32;100170.13;;;-3.88;78.75
55373;BME280;41249;47.838;16.490;2023-02-17T04:37:58;100166.78;;;-3.80;79.00
55373;BME280;41249;47.838;16.490;2023-02-17T04:40:25;100162.28;;;-3.56;79.14
55373;BME280;41249;47.838;16.490;2023-02-17T04:42:52;100159.06;;;-3.29;79.82
55373;BME280;41249;47.838;16.490;2023-02-17T04:45:18;100160.28;;;-2.88;78.42
55373;BME280;41249;47.838;16.490;2023-02-17T04:47:45;100158.16;;;-2.44;78.28
55373;BME280;41249;47.838;16.490;2023-02-17T04:50:11;100163.34;;;-2.23;77.41
55373;BME280;41249;47.838;16.490;2023-02-17T04:52:38;100161.38;;;-1.99;76.26
55373;BME280;41249;47.838;16.490;2023-02-17T04:55:05;100164.22;;;-1.72;75.29
55373;BME280;41249;47.838;16.490;2023-02-17T04:57:33;100160.00;;;-1.46;74.88
55373;BME280;41249;47.838;16.490;2023-02-17T04:59:59;100146.25;;;-1.54;75.25
55373;BME280;41249;47.838;16.490;2023-02-17T05:02:26;100143.34;;;-1.95;73.99
55373;BME280;41249;47.838;16.490;2023-02-17T05:04:53;100143.03;;;-2.12;75.05
55373;BME280;41249;47.838;16.490;2023-02-17T05:07:20;100141.50;;;-2.18;74.95
55373;BME280;41249;47.838;16.490;2023-02-17T05:09:47;100133.44;;;-2.23;75.61
55373;BME280;41249;47.838;16.490;2023-02-17T05:12:13;100120.69;;;-2.28;75.94
55373;BME280;41249;47.838;16.490;2023-02-17T05:14:40;100120.16;;;-2.30;75.68
55373;BME280;41249;47.838;16.490;2023-02-17T05:17:06;100118.28;;;-2.29;75.83
55373;BME280;41249;47.838;16.490;2023-02-17T05:19:33;100121.28;;;-2.31;76.51
55373;BME280;41249;47.838;16.490;2023-02-17T05:22:00;100123.13;;;-2.08;76.73
55373;BME280;41249;47.838;16.490;2023-02-17T05:24:26;100107.38;;;-2.11;76.57
55373;BME280;41249;47.838;16.490;2023-02-17T05:26:53;100105.97;;;-2.08;76.30
55373;BME280;41249;47.838;16.490;2023-02-17T05:29:19;100123.56;;;-2.01;76.12
55373;BME280;41249;47.838;16.490;2023-02-17T05:31:46;100122.69;;;-1.96;76.25
55373;BME280;41249;47.838;16.490;2023-02-17T05:34:12;100119.91;;;-1.91;76.50
55373;BME280;41249;47.838;16.490;2023-02-17T05:36:39;100120.06;;;-2.01;76.35
55373;BME280;41249;47.838;16.490;2023-02-17T05:39:06;100132.38;;;-1.90;76.00
55373;BME280;41249;47.838;16.490;2023-02-17T05:41:34;100130.75;;;-1.72;76.17
55373;BME280;41249;47.838;16.490;2023-02-17T05:44:00;100118.63;;;-1.61;75.68
55373;BME280;41249;47.838;16.490;2023-02-17T05:46:27;100121.25;;;-1.56;75.69
55373;BME280;41249;47.838;16.490;2023-02-17T05:48:54;100110.59;;;-1.71;75.57
55373;BME280;41249;47.838;16.490;2023-02-17T05:51:20;100103.03;;;-1.42;75.99
55373;BME280;41249;47.838;16.490;2023-02-17T05:53:47;100106.22;;;-1.22;74.79
55373;BME280;41249;47.838;16.490;2023-02-17T05:56:14;100096.22;;;-1.13;75.46
55373;BME280;41249;47.838;16.490;2023-02-17T05:58:40;100104.44;;;-0.99;76.06
55373;BME280;41249;47.838;16.490;2023-02-17T06:01:08;100112.22;;;-0.79;76.42
55373;BME280;41249;47.838;16.490;2023-02-17T06:03:35;100105.66;;;-0.64;76.14
55373;BME280;41249;47.838;16.490;2023-02-17T06:06:01;100100.78;;;-0.54;73.25
55373;BME280;41249;47.838;16.490;2023-02-17T06:08:28;100114.13;;;-0.52;74.61
55373;BME280;41249;47.838;16.490;2023-02-17T06:10:55;100102.00;;;-0.73;74.60
55373;BME280;41249;47.838;16.490;2023-02-17T06:13:22;100107.75;;;-0.88;75.12
55373;BME280;41249;47.838;16.490;2023-02-17T06:15:48;100111.69;;;-0.67;76.93
55373;BME280;41249;47.838;16.490;2023-02-17T06:18:15;100115.25;;;-0.94;77.75
55373;BME280;41249;47.838;16.490;2023-02-17T06:20:42;100108.97;;;-1.54;73.39
55373;BME280;41249;47.838;16.490;2023-02-17T06:23:09;100113.75;;;-1.83;75.57
55373;BME280;41249;47.838;16.490;2023-02-17T06:25:37;100117.56;;;-1.65;76.68
55373;BME280;41249;47.838;16.490;2023-02-17T06:28:04;100130.28;;;-1.61;77.14
55373;BME280;41249;47.838;16.490;2023-02-17T06:30:30;100122.16;;;-1.80;76.69
55373;BME280;41249;47.838;16.490;2023-02-17T06:32:57;100117.03;;;-2.00;76.45
55373;BME280;41249;47.838;16.490;2023-02-17T06:35:24;100125.41;;;-1.96;77.26
55373;BME280;41249;47.838;16.490;2023-02-17T06:37:51;100136.66;;;-1.84;77.44
55373;BME280;41249;47.838;16.490;2023-02-17T06:40:18;100140.47;;;-1.85;77.31
55373;BME280;41249;47.838;16.490;2023-02-17T06:42:44;100137.63;;;-1.94;76.95
55373;BME280;41249;47.838;16.490;2023-02-17T06:45:11;100139.03;;;-1.96;77.55
55373;BME280;41249;47.838;16.490;2023-02-17T06:47:38;100134.75;;;-2.02;77.52
55373;BME280;41249;47.838;16.490;2023-02-17T06:50:05;100145.97;;;-2.27;77.95
55373;BME280;41249;47.838;16.490;2023-02-17T06:52:32;100143.31;;;-2.32;78.65
55373;BME280;41249;47.838;16.490;2023-02-17T06:54:58;100139.19;;;-2.49;79.05
55373;BME280;41249;47.838;16.490;2023-02-17T06:57:25;100142.44;;;-2.28;81.95
55373;BME280;41249;47.838;16.490;2023-02-17T06:59:51;100138.13;;;-2.53;81.75
55373;BME280;41249;47.838;16.490;2023-02-17T07:02:18;100131.97;;;-2.82;80.07
55373;BME280;41249;47.838;16.490;2023-02-17T07:04:45;100133.06;;;-3.07;81.15
55373;BME280;41249;47.838;16.490;2023-02-17T07:07:12;100129.88;;;-3.14;81.88
55373;BME280;41249;47.838;16.490;2023-02-17T07:09:39;100139.44;;;-3.21;82.45
55373;BME280;41249;47.838;16.490;2023-02-17T07:12:05;100134.44;;;-3.38;80.78
55373;BME280;41249;47.838;16.490;2023-02-17T07:14:33;100130.44;;;-3.45;82.44
55373;BME280;41249;47.838;16.490;2023-02-17T07:17:00;100133.44;;;-3.47;81.57
55373;BME280;41249;47.838;16.490;2023-02-17T07:19:27;100142.03;;;-3.68;81.37
55373;BME280;41249;47.838;16.490;2023-02-17T07:21:54;100140.78;;;-3.81;82.31
55373;BME280;41249;47.838;16.490;2023-02-17T07:24:21;100132.25;;;-3.70;82.07
55373;BME280;41249;47.838;16.490;2023-02-17T07:26:47;100134.38;;;-3.61;82.51
55373;BME280;41249;47.838;16.490;2023-02-17T07:29:14;100133.81;;;-3.58;80.88
55373;BME280;41249;47.838;16.490;2023-02-17T07:31:41;100142.75;;;-3.58;81.04
55373;BME280;41249;47.838;16.490;2023-02-17T07:34:07;100143.25;;;-3.51;81.45
55373;BME280;41249;47.838;16.490;2023-02-17T07:36:34;100132.47;;;-3.61;80.75
55373;BME280;41249;47.838;16.490;2023-02-17T07:39:02;100131.16;;;-3.63;80.54
55373;BME280;41249;47.838;16.490;2023-02-17T07:41:28;100136.63;;;-3.40;80.55
55373;BME280;41249;47.838;16.490;2023-02-17T07:43:56;100121.22;;;-3.16;79.91
55373;BME280;41249;47.838;16.490;2023-02-17T07:46:24;100123.97;;;-2.97;79.50
55373;BME280;41249;47.838;16.490;2023-02-17T07:48:50;100118.59;;;-2.55;79.57
55373;BME280;41249;47.838;16.490;2023-02-17T07:51:19;100132.94;;;-2.30;79.22
55373;BME280;41249;47.838;16.490;2023-02-17T07:53:47;100126.19;;;-1.77;78.89
55373;BME280;41249;47.838;16.490;2023-02-17T07:56:17;100118.78;;;-1.39;78.02
55373;BME280;41249;47.838;16.490;2023-02-17T07:58:44;100120.56;;;-1.02;76.75
55373;BME280;41249;47.838;16.490;2023-02-17T08:01:22;100120.06;;;-0.77;75.35
55373;BME280;41249;47.838;16.490;2023-02-17T08:03:49;100122.78;;;-0.36;75.35
55373;BME280;41249;47.838;16.490;2023-02-17T08:06:19;100116.88;;;-0.16;74.73
55373;BME280;41249;47.838;16.490;2023-02-17T08:08:46;100118.41;;;0.12;74.33
55373;BME280;41249;47.838;16.490;2023-02-17T08:11:32;100124.34;;;0.50;73.24
55373;BME280;41249;47.838;16.490;2023-02-17T08:14:34;100116.84;;;1.08;72.74
55373;BME280;41249;47.838;16.490;2023-02-17T08:17:01;100103.69;;;1.19;71.10
55373;BME280;41249;47.838;16.490;2023-02-17T08:19:27;100127.78;;;1.47;70.60
55373;BME280;41249;47.838;16.490;2023-02-17T08:22:12;100112.75;;;1.93;69.31
55373;BME280;41249;47.838;16.490;2023-02-17T08:24:38;100112.59;;;1.98;69.42
55373;BME280;41249;47.838;16.490;2023-02-17T08:27:05;100119.97;;;1.89;70.45
55373;BME280;41249;47.838;16.490;2023-02-17T08:29:32;100122.88;;;1.92;70.18
55373;BME280;41249;47.838;16.490;2023-02-17T08:31:58;100127.69;;;1.87;69.94
55373;BME280;41249;47.838;16.490;2023-02-17T08:34:26;100127.09;;;2.07;68.88
55373;BME280;41249;47.838;16.490;2023-02-17T08:36:53;100113.22;;;1.95;69.88
55373;BME280;41249;47.838;16.490;2023-02-17T08:39:20;100104.19;;;1.94;70.79
55373;BME280;41249;47.838;16.490;2023-02-17T08:41:47;100110.50;;;1.95;70.13
55373;BME280;41249;47.838;16.490;2023-02-17T08:44:16;100105.66;;;1.92;69.21
55373;BME280;41249;47.838;16.490;2023-02-17T08:46:43;100117.09;;;2.02;69.14
55373;BME280;41249;47.838;16.490;2023-02-17T08:49:10;100101.44;;;1.86;69.84
55373;BME280;41249;47.838;16.490;2023-02-17T08:51:38;100108.56;;;2.04;69.11
55373;BME280;41249;47.838;16.490;2023-02-17T08:54:06;100105.97;;;1.90;68.34
55373;BME280;41249;47.838;16.490;2023-02-17T08:56:33;100111.91;;;1.84;69.52
55373;BME280;41249;47.838;16.490;2023-02-17T08:59:03;100122.25;;;2.04;69.92
55373;BME280;41249;47.838;16.490;2023-02-17T09:01:30;100110.66;;;2.24;69.18
55373;BME280;41249;47.838;16.490;2023-02-17T09:03:59;100115.28;;;2.58;68.16
55373;BME280;41249;47.838;16.490;2023-02-17T09:06:53;100117.56;;;2.64;67.71
55373;BME280;41249;47.838;16.490;2023-02-17T09:09:20;100112.25;;;2.59;66.66
55373;BME280;41249;47.838;16.490;2023-02-17T09:11:48;100108.66;;;2.76;66.73
55373;BME280;41249;47.838;16.490;2023-02-17T09:14:14;100105.84;;;2.93;67.08
55373;BME280;41249;47.838;16.490;2023-02-17T09:16:41;100107.81;;;2.93;66.44
55373;BME280;41249;47.838;16.490;2023-02-17T09:19:08;100105.19;;;3.05;66.46
55373;BME280;41249;47.838;16.490;2023-02-17T09:21:35;100104.97;;;3.18;67.06
55373;BME280;41249;47.838;16.490;2023-02-17T09:24:01;100112.88;;;3.20;66.56
55373;BME280;41249;47.838;16.490;2023-02-17T09:26:28;100117.03;;;3.26;66.81
55373;BME280;41249;47.838;16.490;2023-02-17T09:28:55;100107.81;;;3.39;66.34
55373;BME280;41249;47.838;16.490;2023-02-17T09:31:25;100110.84;;;3.46;66.07
55373;BME280;41249;47.838;16.490;2023-02-17T09:33:52;100115.03;;;3.52;65.80
55373;BME280;41249;47.838;16.490;2023-02-17T09:36:23;100112.59;;;3.51;65.33
55373;BME280;41249;47.838;16.490;2023-02-17T09:38:51;100112.28;;;3.52;66.18
55373;BME280;41249;47.838;16.490;2023-02-17T09:41:38;100115.22;;;3.76;64.27
55373;BME280;41249;47.838;16.490;2023-02-17T09:46:46;100111.34;;;3.77;64.75
55373;BME280;41249;47.838;16.490;2023-02-17T09:49:32;100112.81;;;3.75;65.46
55373;BME280;41249;47.838;16.490;2023-02-17T09:52:08;100107.97;;;3.92;64.91
55373;BME280;41249;47.838;16.490;2023-02-17T09:54:48;100100.22;;;3.94;64.10
55373;BME280;41249;47.838;16.490;2023-02-17T09:57:20;100091.50;;;3.92;64.76
55373;BME280;41249;47.838;16.490;2023-02-17T09:59:58;100096.88;;;3.89;64.10
55373;BME280;41249;47.838;16.490;2023-02-17T10:05:34;100095.53;;;4.36;62.77
55373;BME280;41249;47.838;16.490;2023-02-17T10:08:08;100092.47;;;4.17;63.08
55373;BME280;41249;47.838;16.490;2023-02-17T10:10:52;100087.28;;;4.16;63.96
55373;BME280;41249;47.838;16.490;2023-02-17T10:13:21;100088.16;;;4.07;64.39
55373;BME280;41249;47.838;16.490;2023-02-17T10:15:51;100091.84;;;4.12;64.33
55373;BME280;41249;47.838;16.490;2023-02-17T10:21:09;100087.75;;;4.18;64.24
55373;BME280;41249;47.838;16.490;2023-02-17T10:23:38;100082.13;;;4.14;64.83
55373;BME280;41249;47.838;16.490;2023-02-17T10:26:23;100087.84;;;4.09;63.77
55373;BME280;41249;47.838;16.490;2023-02-17T10:31:42;100080.63;;;3.55;66.36
55373;BME280;41249;47.838;16.490;2023-02-17T10:34:37;100078.94;;;3.33;66.61
55373;BME280;41249;47.838;16.490;2023-02-17T10:37:12;100067.22;;;3.15;67.76
55373;BME280;41249;47.838;16.490;2023-02-17T10:42:30;100066.09;;;2.70;68.20
55373;BME280;41249;47.838;16.490;2023-02-17T10:45:09;100071.50;;;2.96;67.06
55373;BME280;41249;47.838;16.490;2023-02-17T10:47:39;100058.19;;;2.68;67.94
55373;BME280;41249;47.838;16.490;2023-02-17T10:50:26;100062.13;;;2.33;68.30
55373;BME280;41249;47.838;16.490;2023-02-17T10:52:55;100069.72;;;2.45;68.25
55373;BME280;41249;47.838;16.490;2023-02-17T10:55:34;100058.25;;;2.51;68.38
55373;BME280;41249;47.838;16.490;2023-02-17T11:00:35;100054.50;;;2.56;68.36
55373;BME280;41249;47.838;16.490;2023-02-17T11:03:01;100044.19;;;2.53;68.23
55373;BME280;41249;47.838;16.490;2023-02-17T11:05:33;100050.66;;;2.48;68.54
55373;BME280;41249;47.838;16.490;2023-02-17T11:08:05;100045.69;;;2.42;68.76
55373;BME280;41249;47.838;16.490;2023-02-17T11:10:35;100051.50;;;2.40;68.95
55373;BME280;41249;47.838;16.490;2023-02-17T11:13:03;100049.09;;;2.30;69.50
55373;BME280;41249;47.838;16.490;2023-02-17T11:15:45;100030.44;;;2.15;69.24
55373;BME280;41249;47.838;16.490;2023-02-17T11:18:21;100037.03;;;1.97;70.18
55373;BME280;41249;47.838;16.490;2023-02-17T11:20:59;100032.84;;;2.17;69.74
55373;BME280;41249;47.838;16.490;2023-02-17T11:23:27;100029.88;;;2.47;69.49
55373;BME280;41249;47.838;16.490;2023-02-17T11:26:01;100023.78;;;2.42;69.28
55373;BME280;41249;47.838;16.490;2023-02-17T11:28:28;100017.66;;;2.36;69.76
55373;BME280;41249;47.838;16.490;2023-02-17T11:30:57;100019.56;;;2.44;69.81
55373;BME280;41249;47.838;16.490;2023-02-17T11:33:33;100027.44;;;2.46;69.75
55373;BME280;41249;47.838;16.490;2023-02-17T11:36:01;100017.47;;;2.50;70.29
55373;BME280;41249;47.838;16.490;2023-02-17T11:38:41;100024.72;;;2.46;69.84
55373;BME280;41249;47.838;16.490;2023-02-17T11:41:08;100021.03;;;2.33;70.47
55373;BME280;41249;47.838;16.490;2023-02-17T11:43:37;100015.09;;;2.31;69.84
55373;BME280;41249;47.838;16.490;2023-02-17T11:54:20;100013.19;;;1.72;71.80
55373;BME280;41249;47.838;16.490;2023-02-17T11:59:51;100003.22;;;1.76;71.61
55373;BME280;41249;47.838;16.490;2023-02-17T12:02:37;99996.13;;;1.58;72.62
55373;BME280;41249;47.838;16.490;2023-02-17T12:05:22;99999.19;;;1.73;72.42
55373;BME280;41249;47.838;16.490;2023-02-17T12:20:04;99979.56;;;2.52;71.14
55373;BME280;41249;47.838;16.490;2023-02-17T12:22:59;99978.75;;;2.60;71.12
55373;BME280;41249;47.838;16.490;2023-02-17T12:25:51;99970.91;;;2.79;71.02
55373;BME280;41249;47.838;16.490;2023-02-17T12:39:46;99951.44;;;3.01;71.16
55373;BME280;41249;47.838;16.490;2023-02-17T12:42:40;99944.22;;;2.97;70.99
55373;BME280;41249;47.838;16.490;2023-02-17T12:47:56;99925.22;;;2.92;71.02
55373;BME280;41249;47.838;16.490;2023-02-17T12:50:36;99928.31;;;3.11;70.97
55373;BME280;41249;47.838;16.490;2023-02-17T12:53:10;99914.94;;;3.09;70.44
55373;BME280;41249;47.838;16.490;2023-02-17T12:58:26;99929.97;;;3.32;70.10
55373;BME280;41249;47.838;16.490;2023-02-17T13:01:04;99932.25;;;3.51;69.37
55373;BME280;41249;47.838;16.490;2023-02-17T13:03:34;99921.41;;;3.34;69.49
55373;BME280;41249;47.838;16.490;2023-02-17T13:08:59;99934.13;;;3.59;70.50
55373;BME280;41249;47.838;16.490;2023-02-17T13:11:34;99940.94;;;3.53;69.82
55373;BME280;41249;47.838;16.490;2023-02-17T13:14:27;99923.59;;;3.40;70.25
55373;BME280;41249;47.838;16.490;2023-02-17T13:16:55;99923.69;;;3.32;70.78
55373;BME280;41249;47.838;16.490;2023-02-17T13:25:05;99916.25;;;3.03;71.32
55373;BME280;41249;47.838;16.490;2023-02-17T13:27:36;99917.69;;;3.09;70.67
55373;BME280;41249;47.838;16.490;2023-02-17T13:35:46;99902.50;;;3.53;70.50
55373;BME280;41249;47.838;16.490;2023-02-17T13:38:25;99905.25;;;3.53;70.11
55373;BME280;41249;47.838;16.490;2023-02-17T13:40:52;99897.88;;;3.45;70.64
55373;BME280;41249;47.838;16.490;2023-02-17T13:43:22;99901.03;;;3.56;70.28
55373;BME280;41249;47.838;16.490;2023-02-17T13:45:57;99890.59;;;3.70;69.26
55373;BME280;41249;47.838;16.490;2023-02-17T13:48:28;99895.31;;;3.81;68.81
55373;BME280;41249;47.838;16.490;2023-02-17T13:51:05;99890.09;;;4.00;67.76
55373;BME280;41249;47.838;16.490;2023-02-17T13:56:06;99897.16;;;4.22;66.20
55373;BME280;41249;47.838;16.490;2023-02-17T13:58:39;99891.97;;;4.33;65.18
55373;BME280;41249;47.838;16.490;2023-02-17T14:01:16;99900.38;;;4.60;65.44
55373;BME280;41249;47.838;16.490;2023-02-17T14:03:49;99899.22;;;4.86;65.69
55373;BME280;41249;47.838;16.490;2023-02-17T14:06:25;99894.06;;;4.96;65.39
55373;BME280;41249;47.838;16.490;2023-02-17T14:08:53;99898.88;;;4.99;64.91
55373;BME280;41249;47.838;16.490;2023-02-17T14:11:24;99893.81;;;5.01;65.02
55373;BME280;41249;47.838;16.490;2023-02-17T14:13:54;99892.78;;;5.06;64.94
55373;BME280;41249;47.838;16.490;2023-02-17T14:16:36;99902.97;;;5.05;65.59
55373;BME280;41249;47.838;16.490;2023-02-17T14:21:35;99895.78;;;4.89;66.14
55373;BME280;41249;47.838;16.490;2023-02-17T14:24:02;99881.84;;;4.69;66.94
55373;BME280;41249;47.838;16.490;2023-02-17T14:29:09;99881.59;;;4.50;67.99
55373;BME280;41249;47.838;16.490;2023-02-17T14:31:41;99871.50;;;4.42;67.77
55373;BME280;41249;47.838;16.490;2023-02-17T14:34:23;99877.34;;;4.41;67.76
55373;BME280;41249;47.838;16.490;2023-02-17T14:36:50;99874.25;;;4.42;67.85
55373;BME280;41249;47.838;16.490;2023-02-17T14:39:17;99867.03;;;4.38;68.21